Time;durP1;ratioP1;P1;durP2;ratioP2;P2;SDS_P1;SDS_P2;PMS_P1;PMS_P2;Temp;Humidity;BMP_temperature;BMP_pressure;BME280_temperature;BME280_humidity;BME280_pressure;Samples;Min_cycle;Max_cycle;Signal;HPM_P1;HPM_P2
2023/06/15 00:01:59;;;;;;;10.77;9.43;;;18.70;99.90;;;19.04;81.89;94844.97;5035367;28;20466;-53
2023/06/15 00:04:26;;;;;;;10.10;9.03;;;18.70;99.90;;;19.05;81.49;94854.59;5031509;28;20615;-59
2023/06/15 00:06:54;;;;;;;12.63;10.80;;;18.70;99.90;;;19.06;81.74;94848.25;5034038;28;20809;-61
2023/06/15 00:09:21;;;;;;;10.43;9.43;;;18.70;99.90;;;19.06;80.96;94848.25;5036354;28;20845;-55
2023/06/15 00:11:49;;;;;;;9.40;8.60;;;18.70;99.90;;;19.07;81.62;94841.09;5037037;28;20457;-54
2023/06/15 00:14:17;;;;;;;9.80;8.80;;;18.70;99.90;;;19.08;80.65;94850.75;5031274;28;20491;-54
2023/06/15 00:16:45;;;;;;;12.17;9.03;;;18.70;99.90;;;19.06;80.67;94848.25;5033989;28;20499;-57
2023/06/15 00:19:13;;;;;;;11.33;9.80;;;18.70;99.90;;;19.02;80.99;94849.66;5031758;28;20500;-60
2023/06/15 00:21:41;;;;;;;11.67;10.33;;;18.70;99.90;;;19.00;80.31;94846.38;5030870;28;21003;-58
2023/06/15 00:24:09;;;;;;;11.00;10.00;;;18.70;99.90;;;18.94;80.47;94842.63;5035731;28;20476;-54
2023/06/15 00:26:36;;;;;;;15.50;10.10;;;18.60;99.90;;;18.92;81.48;94841.19;5034830;28;20460;-58
2023/06/15 00:29:04;;;;;;;13.43;10.50;;;18.60;99.90;;;18.92;81.77;94843.84;5032866;28;20472;-56
2023/06/15 00:31:33;;;;;;;11.47;10.40;;;18.60;99.90;;;18.94;81.86;94841.81;5033830;28;20919;-58
2023/06/15 00:34:00;;;;;;;13.97;12.33;;;18.60;99.90;;;18.94;81.22;94831.97;5032642;28;20522;-55
2023/06/15 00:36:28;;;;;;;15.10;11.67;;;18.60;99.90;;;18.92;80.77;94834.00;5034517;28;20910;-58
2023/06/15 00:38:55;;;;;;;13.23;11.77;;;18.60;99.90;;;18.92;81.49;94830.53;5033766;28;20479;-56
2023/06/15 00:41:22;;;;;;;15.90;12.40;;;18.60;99.90;;;18.93;81.74;94830.34;5033282;28;20453;-55
2023/06/15 00:43:49;;;;;;;12.50;11.27;;;18.60;99.90;;;18.95;81.67;94825.63;5034499;28;21023;-55
2023/06/15 00:46:17;;;;;;;16.10;12.60;;;18.60;99.90;;;18.96;81.74;94819.28;5032928;28;20511;-59
2023/06/15 00:48:46;;;;;;;15.53;11.40;;;18.60;99.90;;;18.97;82.08;94828.91;5031618;28;20547;-59
2023/06/15 00:51:13;;;;;;;15.53;12.50;;;18.60;99.90;;;19.00;81.96;94830.38;5035397;28;20448;-56
2023/06/15 00:53:40;;;;;;;14.63;12.90;;;18.70;99.90;;;19.01;81.87;94833.84;5032484;28;20456;-59
2023/06/15 00:56:08;;;;;;;13.90;11.90;;;18.70;99.90;;;19.02;82.06;94823.00;5030453;28;20514;-59
2023/06/15 00:58:35;;;;;;;18.40;12.90;;;18.70;99.90;;;19.02;82.36;94823.00;5032736;28;20468;-58
2023/06/15 01:01:03;;;;;;;15.37;13.73;;;18.70;99.90;;;19.03;81.60;94823.84;5032152;28;20448;-60
2023/06/15 01:03:30;;;;;;;16.33;13.20;;;18.70;99.90;;;19.02;81.91;94839.00;5031023;28;20456;-59
2023/06/15 01:05:59;;;;;;;17.83;12.77;;;18.70;99.90;;;19.02;81.64;94832.84;5030781;28;20918;-59
2023/06/15 01:08:27;;;;;;;14.07;12.23;;;18.70;99.90;;;19.03;81.61;94834.50;5032743;28;20487;-60
2023/06/15 01:10:56;;;;;;;15.00;13.40;;;18.70;99.90;;;19.02;82.12;94822.19;5030494;28;20526;-59
2023/06/15 01:13:23;;;;;;;18.17;13.90;;;18.70;99.90;;;19.04;82.51;94817.47;5029639;28;20448;-57
2023/06/15 01:15:50;;;;;;;16.23;13.67;;;18.70;99.90;;;19.03;81.73;94814.00;5031940;28;20593;-59
2023/06/15 01:18:20;;;;;;;17.23;13.10;;;18.70;99.90;;;19.04;81.72;94812.16;5030975;28;20532;-55
2023/06/15 01:20:48;;;;;;;16.90;14.87;;;18.70;99.90;;;19.06;81.89;94818.13;5035408;28;20553;-55
2023/06/15 01:23:32;;;;;;;15.70;13.90;;;18.70;99.90;;;19.07;82.16;94815.28;5030616;28;20991;-59
2023/06/15 01:26:09;;;;;;;17.80;14.17;;;18.70;99.90;;;19.10;82.17;94819.38;5034931;28;20456;-59
2023/06/15 01:28:40;;;;;;;15.93;13.70;;;18.80;99.90;;;19.10;82.62;94814.88;5032052;28;20448;-57
2023/06/15 01:31:07;;;;;;;17.67;15.30;;;18.80;99.90;;;19.11;82.66;94805.84;5033502;28;20440;-54
2023/06/15 01:33:34;;;;;;;19.97;15.80;;;18.80;99.90;;;19.13;82.51;94808.31;5031926;28;20455;-56
2023/06/15 01:36:02;;;;;;;21.10;14.07;;;18.80;99.90;;;19.14;82.84;94797.47;5027641;28;20489;-60
2023/06/15 01:38:30;;;;;;;21.60;17.47;;;18.80;99.90;;;19.14;82.13;94801.97;5032982;28;20467;-55
2023/06/15 01:40:57;;;;;;;17.43;15.20;;;18.80;99.90;;;19.15;82.71;94792.97;5031397;28;20530;-54
2023/06/15 01:43:28;;;;;;;19.53;16.00;;;18.80;99.90;;;19.15;82.16;94796.44;5033931;28;20447;-60
2023/06/15 01:45:55;;;;;;;22.67;15.70;;;18.80;99.90;;;19.17;82.38;94798.91;5031007;28;20502;-61
2023/06/15 01:48:22;;;;;;;20.77;16.87;;;18.80;99.90;;;19.17;82.34;94798.91;5031642;28;20519;-54
2023/06/15 01:50:50;;;;;;;17.90;14.77;;;18.80;99.90;;;19.16;82.32;94791.94;5033595;28;20476;-58
2023/06/15 01:53:17;;;;;;;18.53;16.17;;;18.80;99.90;;;19.16;82.32;94799.94;5037840;28;20451;-57
2023/06/15 01:55:44;;;;;;;17.13;14.73;;;18.80;99.90;;;19.16;82.81;94798.09;5034764;28;20537;-55
2023/06/15 01:58:15;;;;;;;20.43;15.50;;;18.80;99.90;;;19.17;82.65;94790.94;5028468;28;20459;-55
2023/06/15 02:00:43;;;;;;;17.57;15.30;;;18.80;99.90;;;19.17;82.51;94788.25;5027366;28;20473;-59
2023/06/15 02:03:11;;;;;;;16.80;13.80;;;18.80;99.90;;;19.16;81.92;94791.94;5034852;28;20464;-60
2023/06/15 02:05:39;;;;;;;16.53;14.37;;;18.80;99.90;;;19.16;81.76;94794.59;5031471;28;20977;-59
2023/06/15 02:08:07;;;;;;;17.60;15.80;;;18.80;99.90;;;19.14;81.86;94799.31;5032750;28;20449;-60
2023/06/15 02:10:34;;;;;;;19.20;14.90;;;18.80;99.90;;;19.12;81.80;94796.84;5033856;28;20476;-55
2023/06/15 02:13:02;;;;;;;18.30;15.87;;;18.80;99.90;;;19.12;81.97;94793.34;5028179;28;20511;-58
2023/06/15 02:15:29;;;;;;;19.97;16.50;;;18.80;99.90;;;19.13;82.42;94797.66;5032677;28;20492;-58
2023/06/15 02:18:00;;;;;;;25.23;16.23;;;18.80;99.90;;;19.12;82.29;94791.50;5032325;28;20532;-60
2023/06/15 02:20:28;;;;;;;26.50;17.03;;;18.80;99.90;;;19.13;82.50;94792.31;5031898;28;20496;-56
2023/06/15 02:22:57;;;;;;;15.67;13.53;;;18.70;99.90;;;19.11;82.18;94789.84;5028857;28;20495;-58
2023/06/15 02:25:24;;;;;;;17.30;15.53;;;18.80;99.90;;;19.11;81.94;94792.50;5035071;28;20974;-59
2023/06/15 02:27:51;;;;;;;18.90;14.63;;;18.80;99.90;;;19.10;81.75;94787.38;5033074;28;20527;-56
2023/06/15 02:30:19;;;;;;;19.40;15.13;;;18.80;99.90;;;19.09;82.33;94785.75;5032817;28;20504;-53
2023/06/15 02:32:48;;;;;;;19.87;15.10;;;18.80;99.90;;;19.08;82.83;94786.75;5030929;28;20453;-60
2023/06/15 02:35:17;;;;;;;15.80;13.57;;;18.80;99.90;;;19.08;82.36;94779.56;5030627;28;20523;-59
2023/06/15 02:37:44;;;;;;;22.40;14.40;;;18.70;99.90;;;19.07;82.25;94777.09;5036908;28;20459;-59
2023/06/15 02:40:12;;;;;;;17.37;14.77;;;18.70;99.90;;;19.07;82.19;94782.44;5031447;28;20476;-54
2023/06/15 02:42:39;;;;;;;17.20;14.67;;;18.80;99.90;;;19.07;82.26;94782.44;5032538;28;20530;-59
2023/06/15 02:45:08;;;;;;;22.50;16.70;;;18.70;99.90;;;19.07;82.38;94779.78;5029968;28;20517;-56
2023/06/15 02:47:36;;;;;;;19.20;16.03;;;18.70;99.90;;;19.06;82.55;94786.94;5027327;28;20483;-57
2023/06/15 02:50:03;;;;;;;20.50;16.97;;;18.70;99.90;;;19.07;82.72;94787.75;5031861;28;20467;-56
2023/06/15 02:52:32;;;;;;;24.00;17.63;;;18.70;99.90;;;19.08;82.42;94787.56;5027271;28;20445;-53
2023/06/15 02:54:59;;;;;;;26.30;19.63;;;18.70;99.90;;;19.09;82.76;94783.91;5032826;28;20824;-55
2023/06/15 02:57:26;;;;;;;24.30;17.47;;;18.80;99.90;;;19.10;82.71;94785.56;5034377;28;20457;-59
2023/06/15 02:59:54;;;;;;;21.20;17.57;;;18.80;99.90;;;19.11;82.86;94789.03;5030577;28;20533;-59
2023/06/15 03:02:21;;;;;;;31.33;17.93;;;18.80;99.90;;;19.11;82.51;94783.69;5028415;28;20469;-59
2023/06/15 03:04:50;;;;;;;20.97;17.03;;;18.80;99.90;;;19.11;82.44;94786.38;5030502;28;20924;-58
2023/06/15 03:07:17;;;;;;;24.23;18.73;;;18.80;99.90;;;19.11;82.36;94789.03;5029243;28;20491;-55
2023/06/15 03:09:47;;;;;;;23.30;18.67;;;18.80;99.90;;;19.11;82.44;94784.50;5030711;28;20913;-59
2023/06/15 03:12:15;;;;;;;21.67;17.20;;;18.80;99.90;;;19.12;82.74;94790.69;5029335;28;20977;-59
2023/06/15 03:14:44;;;;;;;25.60;18.93;;;18.80;99.90;;;19.12;82.49;94785.34;5028943;28;20491;-59
2023/06/15 03:17:12;;;;;;;23.20;18.80;;;18.80;99.90;;;19.10;82.59;94782.88;5031840;28;20452;-58
2023/06/15 03:19:40;;;;;;;25.47;19.67;;;18.80;99.90;;;19.13;82.48;94777.16;5026792;28;20500;-55
2023/06/15 03:22:09;;;;;;;23.63;18.37;;;18.80;99.90;;;19.13;82.59;94781.66;5031414;28;21038;-53
2023/06/15 03:24:36;;;;;;;29.60;18.13;;;18.80;99.90;;;19.12;82.43;94774.69;5030557;28;20476;-56
2023/06/15 03:27:06;;;;;;;27.90;18.47;;;18.80;99.90;;;19.11;82.27;94776.53;5035217;28;20502;-56
2023/06/15 03:29:36;;;;;;;28.03;18.93;;;18.80;99.90;;;19.09;82.51;94780.41;5033484;28;20504;-58
2023/06/15 03:32:05;;;;;;;23.70;18.20;;;18.80;99.90;;;19.09;82.45;94785.75;5037451;28;20478;-59
2023/06/15 03:34:33;;;;;;;25.63;18.13;;;18.80;99.90;;;19.09;82.20;94789.22;5032357;28;20531;-56
2023/06/15 03:37:00;;;;;;;25.10;16.13;;;18.80;99.90;;;19.09;82.33;94788.41;5035541;28;21039;-59
2023/06/15 03:39:27;;;;;;;20.83;16.93;;;18.70;99.90;;;19.09;82.42;94781.22;5032151;28;20554;-54
2023/06/15 03:41:54;;;;;;;19.40;15.03;;;18.80;99.90;;;19.09;82.59;94780.41;5037179;28;20490;-59
2023/06/15 03:44:23;;;;;;;20.30;16.93;;;18.80;99.90;;;19.08;82.38;94778.75;5041444;28;20475;-59
2023/06/15 03:46:50;;;;;;;22.87;16.97;;;18.80;99.90;;;19.07;82.61;94772.63;5038262;28;20468;-54
2023/06/15 03:49:17;;;;;;;20.23;15.80;;;18.70;99.90;;;19.08;82.70;94782.25;5033129;28;20480;-60
2023/06/15 03:51:45;;;;;;;16.53;14.30;;;18.80;99.90;;;19.08;82.19;94781.44;5035643;28;20451;-59
2023/06/15 03:54:12;;;;;;;17.87;15.07;;;18.80;99.90;;;19.08;82.36;94784.09;5034502;28;20492;-55
2023/06/15 03:56:40;;;;;;;19.20;14.70;;;18.70;99.90;;;19.08;82.01;94786.75;5036460;28;21008;-54
2023/06/15 03:59:07;;;;;;;15.70;14.07;;;18.70;99.90;;;19.08;82.22;94789.44;5032647;28;20492;-56
2023/06/15 04:01:37;;;;;;;17.00;13.70;;;18.80;99.90;;;19.08;82.54;94794.75;5037411;28;20525;-53
2023/06/15 04:04:05;;;;;;;16.97;13.40;;;18.80;99.90;;;19.08;82.23;94781.44;5030679;28;20467;-58
2023/06/15 04:06:32;;;;;;;19.07;11.93;;;18.80;99.90;;;19.08;82.12;94792.09;5036300;28;20451;-56
2023/06/15 04:09:00;;;;;;;14.50;12.00;;;18.70;99.90;;;19.09;82.17;94796.41;5031998;28;20559;-57
2023/06/15 04:11:27;;;;;;;14.70;11.83;;;18.80;99.90;;;19.09;81.92;94791.91;5034848;28;20973;-55
2023/06/15 04:13:54;;;;;;;16.13;12.10;;;18.80;99.90;;;19.12;81.73;94796.03;5034868;28;20556;-60
2023/06/15 04:16:22;;;;;;;15.90;12.07;;;18.80;99.90;;;19.15;82.20;94793.78;5034184;28;20561;-53
2023/06/15 04:18:51;;;;;;;18.43;11.40;;;18.80;99.90;;;19.19;82.24;94796.88;5032975;28;20847;-53
2023/06/15 04:21:18;;;;;;;16.10;14.40;;;18.80;99.90;;;19.23;82.01;94795.47;5030808;28;20989;-55
2023/06/15 04:23:45;;;;;;;15.93;13.60;;;18.90;99.90;;;19.27;81.94;94788.75;5031931;28;20459;-55
2023/06/15 04:26:13;;;;;;;15.77;13.37;;;18.90;99.90;;;19.31;82.08;94789.97;5033812;28;20693;-59
2023/06/15 04:28:40;;;;;;;18.73;12.33;;;18.90;99.90;;;19.37;82.10;94790.22;5030140;28;21127;-62
2023/06/15 04:31:09;;;;;;;21.57;14.77;;;19.00;99.90;;;19.44;81.93;94793.75;5037238;28;20633;-61
2023/06/15 04:33:37;;;;;;;15.70;13.90;;;19.00;99.90;;;19.48;81.31;94793.16;5031631;28;20463;-56
2023/06/15 04:36:06;;;;;;;16.83;12.17;;;19.10;99.90;;;19.52;81.29;94796.28;5028181;28;20512;-55
2023/06/15 04:38:33;;;;;;;15.57;13.17;;;19.20;99.90;;;19.54;81.12;94799.56;5029812;28;20522;-61
2023/06/15 04:41:01;;;;;;;16.90;15.10;;;19.20;99.90;;;19.57;81.38;94796.50;5033960;28;20972;-61
2023/06/15 04:43:28;;;;;;;17.23;13.60;;;19.20;99.90;;;19.58;81.09;94797.31;5030399;28;20472;-59
2023/06/15 04:45:55;;;;;;;14.27;12.70;;;19.20;99.90;;;19.56;81.30;94797.50;5036477;28;20536;-55
2023/06/15 04:48:27;;;;;;;19.07;13.53;;;19.20;99.90;;;19.56;81.44;94794.84;5033924;28;20677;-60
2023/06/15 04:50:56;;;;;;;17.33;12.90;;;19.20;99.90;;;19.58;80.49;94794.63;5035860;28;20449;-60
2023/06/15 04:53:25;;;;;;;16.47;13.07;;;19.20;99.90;;;19.56;80.98;94792.16;5029949;28;20469;-61
2023/06/15 04:55:53;;;;;;;20.50;14.00;;;19.30;99.90;;;19.56;81.03;94794.03;5039115;28;20992;-55
2023/06/15 04:58:20;;;;;;;16.20;12.97;;;19.20;99.90;;;19.57;80.92;94804.50;5032464;28;20925;-62
2023/06/15 05:00:47;;;;;;;19.00;13.53;;;19.20;99.90;;;19.58;80.86;94806.16;5033911;28;20482;-55
2023/06/15 05:03:15;;;;;;;16.73;13.37;;;19.20;99.90;;;19.62;80.84;94811.91;5034074;28;20456;-61
2023/06/15 05:05:42;;;;;;;15.93;12.83;;;19.30;99.90;;;19.65;80.99;94816.84;5036544;28;20476;-57
2023/06/15 05:08:09;;;;;;;19.13;13.63;;;19.30;99.90;;;19.68;81.16;94814.59;5030404;28;20461;-60
2023/06/15 05:10:38;;;;;;;16.13;11.90;;;19.30;99.90;;;19.71;80.57;94822.22;5036807;28;20468;-61
2023/06/15 05:13:05;;;;;;;14.63;12.90;;;19.40;99.90;;;19.75;81.00;94822.66;5030815;28;20448;-61
2023/06/15 05:15:32;;;;;;;12.40;11.20;;;19.40;99.90;;;19.78;80.42;94816.94;5033679;28;20539;-61
2023/06/15 05:17:59;;;;;;;13.17;11.87;;;19.50;99.90;;;19.80;80.31;94825.59;5034940;28;20510;-55
2023/06/15 05:20:27;;;;;;;19.23;13.13;;;19.40;99.90;;;19.84;80.19;94828.66;5035723;28;20472;-60
2023/06/15 05:22:56;;;;;;;16.20;12.90;;;19.50;99.90;;;19.87;79.72;94833.63;5030339;28;20460;-61
2023/06/15 05:25:23;;;;;;;14.73;11.87;;;19.50;99.90;;;19.90;80.20;94822.53;5035065;28;20489;-56
2023/06/15 05:27:52;;;;;;;16.40;12.07;;;19.50;99.90;;;19.97;80.43;94826.06;5032444;28;20464;-60
2023/06/15 05:30:21;;;;;;;17.47;12.67;;;19.60;99.90;;;20.00;80.33;94828.34;5034026;28;20468;-56
2023/06/15 05:32:48;;;;;;;31.17;12.57;;;19.70;99.90;;;20.05;80.36;94833.09;5030302;28;20445;-55
2023/06/15 05:35:16;;;;;;;13.83;12.00;;;19.70;99.90;;;20.08;80.60;94826.50;5032289;28;20479;-56
2023/06/15 05:37:44;;;;;;;16.20;12.90;;;19.70;99.90;;;20.10;80.08;94821.81;5034580;28;20460;-59
2023/06/15 05:40:12;;;;;;;14.67;13.17;;;19.70;99.90;;;20.13;80.03;94830.22;5029469;28;20468;-58
2023/06/15 05:42:40;;;;;;;15.53;12.50;;;19.80;99.90;;;20.19;79.71;94828.63;5035177;28;20464;-57
2023/06/15 05:45:10;;;;;;;18.33;12.43;;;19.80;99.90;;;20.23;79.76;94828.00;5032508;28;20469;-59
2023/06/15 05:47:37;;;;;;;25.30;12.23;;;19.90;99.90;;;20.28;79.30;94834.59;5031077;28;20843;-57
2023/06/15 05:50:05;;;;;;;22.80;12.97;;;19.90;99.90;;;20.31;79.56;94831.50;5030606;28;20856;-56
2023/06/15 05:52:33;;;;;;;13.57;11.30;;;19.90;99.90;;;20.34;79.00;94841.78;5031484;28;20964;-57
2023/06/15 05:55:00;;;;;;;15.30;12.37;;;20.00;99.90;;;20.34;78.79;94831.94;5032693;28;20464;-56
2023/06/15 05:57:27;;;;;;;14.93;10.67;;;20.00;99.90;;;20.36;78.79;94840.56;5038711;28;20492;-57
2023/06/15 05:59:55;;;;;;;13.03;11.53;;;20.00;99.90;;;20.39;78.46;94840.19;5031685;28;20468;-58
2023/06/15 06:02:24;;;;;;;13.73;10.90;;;20.00;99.90;;;20.44;78.09;94842.25;5030556;28;20456;-55
2023/06/15 06:04:51;;;;;;;12.80;11.10;;;20.10;99.90;;;20.45;77.65;94837.72;5031282;28;20480;-55
2023/06/15 06:07:19;;;;;;;13.00;11.00;;;20.10;99.90;;;20.44;77.71;94842.25;5035697;28;20856;-61
2023/06/15 06:09:47;;;;;;;14.20;11.60;;;20.10;99.90;;;20.41;77.23;94838.13;5036186;28;20499;-60
2023/06/15 06:12:14;;;;;;;15.77;10.67;;;20.10;99.90;;;20.42;77.16;94833.63;5028921;28;20465;-55
2023/06/15 06:14:41;;;;;;;14.80;11.87;;;20.10;99.90;;;20.44;77.60;94836.91;5035539;28;20526;-58
2023/06/15 06:17:09;;;;;;;14.60;11.63;;;20.10;99.90;;;20.49;77.40;94828.28;5031805;28;21005;-59
2023/06/15 06:19:38;;;;;;;16.63;11.20;;;20.10;99.90;;;20.56;77.42;94834.47;5034103;28;20472;-59
2023/06/15 06:22:06;;;;;;;16.50;11.40;;;20.20;99.90;;;20.63;77.34;94840.63;5032796;28;20535;-57
2023/06/15 06:24:34;;;;;;;13.83;12.43;;;20.20;99.90;;;20.74;77.52;94841.91;5035566;28;21189;-58
2023/06/15 06:27:01;;;;;;;15.37;12.50;;;20.30;99.90;;;20.84;77.18;94841.53;5035349;28;20848;-55
2023/06/15 06:29:29;;;;;;;17.47;13.37;;;20.40;99.90;;;20.91;76.27;94842.34;5031351;28;20488;-56
2023/06/15 06:31:56;;;;;;;14.33;12.80;;;20.50;99.90;;;20.98;76.18;94842.38;5033963;28;20953;-56
2023/06/15 06:34:23;;;;;;;14.20;11.57;;;20.60;99.90;;;21.02;76.00;94835.56;5029843;28;20477;-57
2023/06/15 06:36:53;;;;;;;16.13;12.33;;;20.60;99.90;;;21.07;75.63;94838.47;5034953;28;20491;-58
2023/06/15 06:39:20;;;;;;;14.60;12.10;;;20.60;99.90;;;21.11;74.96;94837.81;5030538;28;20500;-55
2023/06/15 06:41:48;;;;;;;19.90;12.93;;;20.70;99.90;;;21.16;74.62;94839.06;5036098;28;20530;-60
2023/06/15 06:44:16;;;;;;;14.07;11.90;;;20.80;99.90;;;21.19;74.82;94835.97;5029778;28;20473;-56
2023/06/15 06:46:44;;;;;;;17.03;12.93;;;20.80;99.90;;;21.23;74.13;94832.66;5036877;28;20487;-56
2023/06/15 06:49:11;;;;;;;13.60;12.20;;;20.80;99.90;;;21.25;74.16;94835.13;5032483;28;20509;-57
2023/06/15 06:51:39;;;;;;;18.73;12.00;;;20.90;99.90;;;21.28;74.46;94840.88;5035126;28;20457;-60
2023/06/15 06:54:08;;;;;;;13.50;11.63;;;20.90;99.90;;;21.33;74.33;94840.28;5031032;28;20854;-54
2023/06/15 06:56:35;;;;;;;13.90;12.10;;;21.00;99.90;;;21.36;73.98;94839.84;5035201;28;20498;-58
2023/06/15 06:59:03;;;;;;;15.60;11.60;;;21.00;99.90;;;21.36;73.81;94839.84;5031468;28;20468;-55
2023/06/15 07:01:30;;;;;;;19.70;11.97;;;21.00;99.90;;;21.34;73.97;94836.56;5032367;28;20526;-59
2023/06/15 07:03:58;;;;;;;21.90;13.53;;;21.00;99.90;;;21.33;73.77;94826.88;5031086;28;20530;-55
2023/06/15 07:06:25;;;;;;;20.97;11.83;;;21.00;99.90;;;21.34;74.04;94833.91;5032601;28;20479;-58
2023/06/15 07:08:52;;;;;;;21.53;12.70;;;21.00;99.90;;;21.32;73.70;94841.31;5033778;28;20549;-58
2023/06/15 07:11:21;;;;;;;15.87;12.60;;;21.00;99.90;;;21.33;73.61;94839.47;5031865;28;20457;-57
2023/06/15 07:13:49;;;;;;;14.20;11.20;;;21.00;99.90;;;21.37;74.22;94838.84;5027333;28;20455;-59
2023/06/15 07:16:16;;;;;;;31.13;12.90;;;21.00;99.90;;;21.40;74.01;94838.41;5029553;28;20496;-55
2023/06/15 07:18:43;;;;;;;15.70;10.93;;;21.00;99.90;;;21.42;73.87;94827.50;5034768;28;20469;-59
2023/06/15 07:21:11;;;;;;;18.47;11.17;;;21.00;99.90;;;21.47;74.23;94830.38;5029408;28;20479;-57
2023/06/15 07:23:38;;;;;;;15.07;11.10;;;21.10;99.90;;;21.54;74.50;94830.41;5035365;28;20536;-53
2023/06/15 07:26:06;;;;;;;15.73;12.37;;;21.10;99.90;;;21.60;74.12;94838.41;5029694;28;20456;-58
2023/06/15 07:28:35;;;;;;;13.73;11.93;;;21.20;99.90;;;21.64;73.79;94836.97;5035238;28;20457;-54
2023/06/15 07:31:02;;;;;;;22.93;12.50;;;21.30;99.90;;;21.68;73.46;94837.38;5033667;28;20484;-55
2023/06/15 07:33:30;;;;;;;17.37;11.80;;;21.30;99.90;;;21.69;73.71;94836.34;5029555;28;20456;-58
2023/06/15 07:35:57;;;;;;;16.40;12.30;;;21.30;99.90;;;21.73;73.11;94834.06;5033399;28;20538;-54
2023/06/15 07:38:26;;;;;;;21.73;13.07;;;21.30;99.90;;;21.75;72.89;94838.19;5030859;28;20456;-56
2023/06/15 07:40:53;;;;;;;19.03;12.80;;;21.40;99.90;;;21.77;73.02;94832.63;5032823;28;20464;-55
2023/06/15 07:43:21;;;;;;;21.20;13.80;;;21.40;99.90;;;21.77;72.83;94833.44;5031420;28;20979;-56
2023/06/15 07:45:50;;;;;;;19.20;12.73;;;21.40;99.90;;;21.78;72.59;94834.25;5032497;28;20845;-58
2023/06/15 07:48:17;;;;;;;19.87;12.67;;;21.50;99.90;;;21.78;72.19;94826.22;5028994;28;20459;-59
2023/06/15 07:50:46;;;;;;;15.97;10.20;;;21.40;99.90;;;21.78;72.33;94828.88;5032402;28;21380;-55
2023/06/15 07:53:14;;;;;;;15.63;11.67;;;21.40;99.90;;;21.81;72.74;94825.78;5033077;28;20524;-55
2023/06/15 07:55:41;;;;;;;18.23;10.87;;;21.40;99.90;;;21.84;72.51;94831.56;5036797;28;20538;-58
2023/06/15 07:58:09;;;;;;;19.17;11.43;;;21.50;99.90;;;21.82;71.75;94830.94;5034188;28;20541;-58
2023/06/15 08:00:36;;;;;;;12.57;10.90;;;21.50;99.90;;;21.81;71.83;94826.63;5031611;28;20484;-59
2023/06/15 08:03:05;;;;;;;14.27;10.60;;;21.50;99.90;;;21.85;71.89;94827.03;5034392;28;20450;-55
2023/06/15 08:05:32;;;;;;;12.70;11.20;;;21.50;99.90;;;21.84;71.78;94828.91;5029038;28;20483;-55
2023/06/15 08:08:00;;;;;;;11.50;9.57;;;21.50;99.90;;;21.83;71.94;94826.44;5034351;28;20455;-59
2023/06/15 08:10:27;;;;;;;11.53;10.33;;;21.50;99.90;;;21.84;72.07;94826.22;5030157;28;20504;-56
2023/06/15 08:12:54;;;;;;;16.80;9.83;;;21.50;99.90;;;21.85;72.06;94830.50;5029022;28;20452;-55
2023/06/15 08:15:22;;;;;;;16.67;12.77;;;21.50;99.90;;;21.87;71.33;94832.97;5034370;28;20472;-58
2023/06/15 08:17:49;;;;;;;12.53;11.10;;;21.50;99.90;;;21.85;71.48;94827.03;5035651;28;20495;-56
2023/06/15 08:20:19;;;;;;;14.30;11.50;;;21.50;99.90;;;21.82;71.26;94833.63;5035727;28;20467;-57
2023/06/15 08:22:46;;;;;;;13.47;11.90;;;21.50;99.90;;;21.79;71.23;94834.03;5034474;28;20449;-57
2023/06/15 08:25:14;;;;;;;16.47;12.13;;;21.50;99.90;;;21.74;71.33;94843.75;5037006;28;20633;-57
2023/06/15 08:27:42;;;;;;;14.10;11.67;;;21.50;99.90;;;21.71;71.15;94839.63;5034124;28;20950;-56
2023/06/15 08:30:11;;;;;;;12.10;10.97;;;21.40;99.90;;;21.69;71.27;94843.53;5036945;28;20476;-60
2023/06/15 08:32:39;;;;;;;34.53;11.60;;;21.40;99.90;;;21.68;71.11;94840.03;5034821;28;20444;-57
2023/06/15 08:35:07;;;;;;;12.13;10.77;;;21.30;99.90;;;21.69;71.41;94839.03;5037718;28;20541;-56
2023/06/15 08:37:36;;;;;;;18.90;12.87;;;21.30;99.90;;;21.70;71.25;94842.50;5032161;28;20496;-61
2023/06/15 08:40:08;;;;;;;20.40;12.80;;;21.30;99.90;;;21.72;71.15;94846.63;5038719;28;20635;-55
2023/06/15 08:42:35;;;;;;;24.93;12.47;;;21.40;99.90;;;21.74;71.69;94844.56;5032901;28;20516;-56
2023/06/15 08:45:07;;;;;;;16.83;13.80;;;21.40;99.90;;;21.78;71.59;94847.63;5033704;28;20562;-54
2023/06/15 08:47:34;;;;;;;17.50;13.43;;;21.40;99.90;;;21.79;71.21;94844.75;5032628;28;20463;-58
2023/06/15 08:50:03;;;;;;;22.77;13.10;;;21.40;99.90;;;21.81;71.36;94844.53;5034304;28;20479;-58
2023/06/15 08:52:33;;;;;;;17.20;12.47;;;21.40;99.90;;;21.80;71.62;94846.41;5030269;28;20459;-57
2023/06/15 08:55:03;;;;;;;12.87;10.93;;;21.50;99.90;;;21.82;71.55;94848.88;5035006;28;20534;-57
2023/06/15 08:57:32;;;;;;;12.97;11.70;;;21.50;99.90;;;21.82;71.61;94848.88;5039542;28;20488;-55
2023/06/15 08:59:59;;;;;;;17.57;12.27;;;21.50;99.90;;;21.79;71.39;94850.09;5031562;28;20560;-55
2023/06/15 09:02:27;;;;;;;20.23;13.13;;;21.40;99.90;;;21.74;71.24;94857.94;5035115;28;20996;-56
2023/06/15 09:04:56;;;;;;;24.17;12.17;;;21.40;99.90;;;21.69;71.25;94852.41;5032532;28;20564;-56
2023/06/15 09:07:25;;;;;;;16.37;13.43;;;21.40;99.90;;;21.65;72.18;94853.84;5036732;28;20519;-54
2023/06/15 09:10:16;;;;;;;20.53;12.67;;;21.30;99.90;;;21.61;73.26;94855.28;5036122;28;20479;-57
2023/06/15 09:12:44;;;;;;;21.17;13.10;;;21.30;99.90;;;21.56;72.96;94855.09;5032063;28;20510;-59
2023/06/15 09:15:13;;;;;;;16.93;14.27;;;21.20;99.90;;;21.51;73.56;94854.91;5035767;28;20472;-58
2023/06/15 09:17:41;;;;;;;16.80;14.37;;;21.20;99.90;;;21.43;74.08;94856.72;5033455;28;21043;-54
2023/06/15 09:20:10;;;;;;;17.43;15.00;;;21.10;99.90;;;21.39;74.61;94865.38;5035163;28;20519;-58
2023/06/15 09:22:42;;;;;;;30.33;13.37;;;21.00;99.90;;;21.34;75.08;94868.69;5033607;28;20457;-55
2023/06/15 09:25:16;;;;;;;20.70;14.83;;;21.00;99.90;;;21.29;75.64;94879.19;5034792;28;20929;-58
2023/06/15 09:27:54;;;;;;;24.17;14.90;;;21.00;99.90;;;21.23;75.55;94880.81;5036102;28;20440;-58
2023/06/15 09:30:22;;;;;;;31.97;17.27;;;20.90;99.90;;;21.14;75.70;94871.34;5032482;28;20472;-53
2023/06/15 09:32:49;;;;;;;19.53;15.43;;;20.80;99.90;;;21.04;76.51;94869.09;5034235;28;20491;-56
2023/06/15 09:35:17;;;;;;;25.40;17.47;;;20.70;99.90;;;20.96;77.34;94871.97;5032534;28;20464;-57
2023/06/15 09:37:44;;;;;;;22.70;16.40;;;20.60;99.90;;;20.89;77.70;94877.31;5035698;28;20504;-58
2023/06/15 09:40:14;;;;;;;25.77;17.77;;;20.60;99.90;;;20.83;79.13;94882.66;5033426;28;20474;-57
2023/06/15 09:42:41;;;;;;;25.97;17.30;;;20.50;99.90;;;20.82;79.52;94891.69;5034594;28;20460;-56
2023/06/15 09:45:10;;;;;;;32.40;22.17;;;20.50;99.90;;;20.80;79.88;94901.78;5033358;28;20516;-59
2023/06/15 09:47:38;;;;;;;39.53;23.50;;;20.40;99.90;;;20.79;79.78;94898.28;5034605;28;20456;-54
2023/06/15 09:50:11;;;;;;;32.80;19.87;;;20.50;99.90;;;20.76;79.92;94888.81;5032093;28;20495;-57
2023/06/15 09:52:43;;;;;;;26.43;17.67;;;20.40;99.90;;;20.74;80.30;94887.34;5031492;28;20535;-58
2023/06/15 09:55:11;;;;;;;23.43;16.00;;;20.40;99.90;;;20.70;79.85;94891.47;5031548;28;20476;-58
2023/06/15 09:57:41;;;;;;;18.50;14.00;;;20.40;99.90;;;20.66;79.61;94883.00;5037837;28;20558;-56
2023/06/15 10:00:12;;;;;;;22.33;15.00;;;20.30;99.90;;;20.61;79.75;94885.44;5031624;28;20662;-52
2023/06/15 10:02:40;;;;;;;16.57;14.77;;;20.30;99.90;;;20.58;80.21;94875.97;5033700;28;20444;-57
2023/06/15 10:05:13;;;;;;;16.90;15.10;;;20.30;99.90;;;20.56;80.03;94882.56;5029435;28;20898;-57
2023/06/15 10:07:45;;;;;;;13.50;12.10;;;20.20;99.90;;;20.54;80.10;94874.75;5035666;28;20452;-56
2023/06/15 10:10:13;;;;;;;14.37;12.20;;;20.20;99.90;;;20.54;79.95;94879.25;5030955;28;20465;-57